Página principal
Imagens de satélite Previsões 15 diasClimaMeteorologia maritima Ciclones Descargas eléctricas AeroportosFAQ Notícias Sobre
Tempo : Europa África América do Norte América do Sul Ásia Austrália-Oceania Outros
Línguas Contacto

Cambridge, Inglaterra

latitude: 52-12N, longitude: 000-11E, altura: 15 m


METAR: EGSC 291820Z 29010KT 260V360 CAVOK 24/12 Q1014
short-TAF: EGSC 291701Z 2918/2921 30005KT 9999 FEW040
long-TAF: em falta

Hora: 19:48 (18:48 UTC)

Observação actual do tempo

O boletim foi feito há 28 minutos, às 18:20 UTC  
Vento 10 kt de oes-noroeste, variando entre oeste e norte
Temperatura 24°C
Humidade 47%
Pressão 1014 hPa
Visibilidade 10 km ou mais
sem nuvens abaixo de 1500 metros e sem cumulonimbus

Mudar unidades

Previsão

O boletim foi feito há 1 hora e 33 minutos, às 17:15 UTC  
Previsão válida de 29 às 18 UTC a 29 às 21 UTC
Vento 05 kt de oes-noroeste
Visibilidade 10 km ou mais
Poucas nuvens a uma altura de 4000 ft
As informações contidas neste sítio estão sujeitas a uma declaração de exoneração de responsabilidade
Tempo : Europa África América do Norte América do Sul Ásia Austrália-Oceania Outros
Imagens de satélite Previsões 15 diasClimaMeteorologia maritima Ciclones Descargas eléctricas AeroportosFAQ Línguas Contacto Notícias Sobre